sensor_id;sensor_type;location;lat;lon;timestamp;temperature;humidity
18624;DHT22;9441;51.420;7.036;2024-02-26T00:00:03;5.70;99.90
18624;DHT22;9441;51.420;7.036;2024-02-26T00:01:05;5.70;99.90
18624;DHT22;9441;51.420;7.036;2024-02-26T00:02:07;5.70;99.90
18624;DHT22;9441;51.420;7.036;2024-02-26T00:03:08;5.70;99.90
18624;DHT22;9441;51.420;7.036;2024-02-26T00:04:11;5.70;99.90
18624;DHT22;9441;51.420;7.036;2024-02-26T00:05:12;5.70;99.90
18624;DHT22;9441;51.420;7.036;2024-02-26T00:06:16;5.70;99.90
18624;DHT22;9441;51.420;7.036;2024-02-26T00:07:18;5.70;99.90
18624;DHT22;9441;51.420;7.036;2024-02-26T00:08:20;5.70;99.90
18624;DHT22;9441;51.420;7.036;2024-02-26T00:09:22;5.70;99.90
18624;DHT22;9441;51.420;7.036;2024-02-26T00:10:24;5.70;99.90
18624;DHT22;9441;51.420;7.036;2024-02-26T00:11:25;5.70;99.90
18624;DHT22;9441;51.420;7.036;2024-02-26T00:12:26;5.70;99.90
18624;DHT22;9441;51.420;7.036;2024-02-26T00:13:28;5.70;99.90
18624;DHT22;9441;51.420;7.036;2024-02-26T00:14:29;5.70;99.90
18624;DHT22;9441;51.420;7.036;2024-02-26T00:15:31;5.70;99.90
18624;DHT22;9441;51.420;7.036;2024-02-26T00:16:32;5.60;99.90
18624;DHT22;9441;51.420;7.036;2024-02-26T00:17:34;5.60;99.90
18624;DHT22;9441;51.420;7.036;2024-02-26T00:18:35;5.60;99.90
18624;DHT22;9441;51.420;7.036;2024-02-26T00:19:37;5.60;99.90
18624;DHT22;9441;51.420;7.036;2024-02-26T00:20:38;5.70;99.90
18624;DHT22;9441;51.420;7.036;2024-02-26T00:21:42;5.60;99.90
18624;DHT22;9441;51.420;7.036;2024-02-26T00:22:43;5.60;1.00
18624;DHT22;9441;51.420;7.036;2024-02-26T00:23:45;5.70;1.00
18624;DHT22;9441;51.420;7.036;2024-02-26T00:24:46;5.70;1.00
18624;DHT22;9441;51.420;7.036;2024-02-26T00:25:48;5.70;1.00
18624;DHT22;9441;51.420;7.036;2024-02-26T00:26:49;5.60;1.00
18624;DHT22;9441;51.420;7.036;2024-02-26T00:27:55;5.50;1.00
18624;DHT22;9441;51.420;7.036;2024-02-26T00:28:56;5.50;1.00
18624;DHT22;9441;51.420;7.036;2024-02-26T00:29:58;5.60;1.00
18624;DHT22;9441;51.420;7.036;2024-02-26T00:30:59;5.60;1.00
18624;DHT22;9441;51.420;7.036;2024-02-26T00:32:00;5.60;1.00
18624;DHT22;9441;51.420;7.036;2024-02-26T00:33:02;5.60;1.00
18624;DHT22;9441;51.420;7.036;2024-02-26T00:34:03;5.60;1.00
18624;DHT22;9441;51.420;7.036;2024-02-26T00:35:05;5.60;1.00
18624;DHT22;9441;51.420;7.036;2024-02-26T00:36:08;5.70;1.00
18624;DHT22;9441;51.420;7.036;2024-02-26T00:37:10;5.60;1.00
18624;DHT22;9441;51.420;7.036;2024-02-26T00:38:12;5.60;1.00
18624;DHT22;9441;51.420;7.036;2024-02-26T00:39:13;5.60;1.00
18624;DHT22;9441;51.420;7.036;2024-02-26T00:40:15;5.70;1.00
18624;DHT22;9441;51.420;7.036;2024-02-26T00:41:17;5.60;1.00
18624;DHT22;9441;51.420;7.036;2024-02-26T00:42:19;5.60;1.00
18624;DHT22;9441;51.420;7.036;2024-02-26T00:43:20;5.60;1.00
18624;DHT22;9441;51.420;7.036;2024-02-26T00:44:22;5.60;1.00
18624;DHT22;9441;51.420;7.036;2024-02-26T00:45:23;5.60;1.00
18624;DHT22;9441;51.420;7.036;2024-02-26T00:46:25;5.60;1.00
18624;DHT22;9441;51.420;7.036;2024-02-26T00:47:26;5.70;1.00
18624;DHT22;9441;51.420;7.036;2024-02-26T00:48:28;5.70;1.00
18624;DHT22;9441;51.420;7.036;2024-02-26T00:49:29;5.60;1.00
18624;DHT22;9441;51.420;7.036;2024-02-26T00:50:31;5.70;1.00
18624;DHT22;9441;51.420;7.036;2024-02-26T00:51:32;5.70;1.00
18624;DHT22;9441;51.420;7.036;2024-02-26T00:52:35;5.70;1.00
18624;DHT22;9441;51.420;7.036;2024-02-26T00:53:37;5.60;1.00
18624;DHT22;9441;51.420;7.036;2024-02-26T00:54:38;5.70;1.00
18624;DHT22;9441;51.420;7.036;2024-02-26T00:55:40;5.60;1.00
18624;DHT22;9441;51.420;7.036;2024-02-26T00:56:41;5.70;1.00
18624;DHT22;9441;51.420;7.036;2024-02-26T00:57:43;5.70;1.00
18624;DHT22;9441;51.420;7.036;2024-02-26T00:58:44;5.70;1.00
18624;DHT22;9441;51.420;7.036;2024-02-26T00:59:46;5.70;1.00
18624;DHT22;9441;51.420;7.036;2024-02-26T01:00:47;5.70;1.00
18624;DHT22;9441;51.420;7.036;2024-02-26T01:01:49;5.70;1.00
18624;DHT22;9441;51.420;7.036;2024-02-26T01:02:50;5.70;1.00
18624;DHT22;9441;51.420;7.036;2024-02-26T01:03:52;5.70;1.00
18624;DHT22;9441;51.420;7.036;2024-02-26T01:04:53;5.70;1.00
18624;DHT22;9441;51.420;7.036;2024-02-26T01:05:55;5.70;1.00
18624;DHT22;9441;51.420;7.036;2024-02-26T01:06:57;5.70;1.00
18624;DHT22;9441;51.420;7.036;2024-02-26T01:07:59;5.70;1.00
18624;DHT22;9441;51.420;7.036;2024-02-26T01:09:01;5.70;1.00
18624;DHT22;9441;51.420;7.036;2024-02-26T01:10:02;5.60;1.00
18624;DHT22;9441;51.420;7.036;2024-02-26T01:11:04;5.70;1.00
18624;DHT22;9441;51.420;7.036;2024-02-26T01:12:06;5.70;1.00
18624;DHT22;9441;51.420;7.036;2024-02-26T01:13:08;5.70;1.00
18624;DHT22;9441;51.420;7.036;2024-02-26T01:14:09;5.70;1.00
18624;DHT22;9441;51.420;7.036;2024-02-26T01:15:11;5.70;1.00
18624;DHT22;9441;51.420;7.036;2024-02-26T01:16:12;5.70;1.00
18624;DHT22;9441;51.420;7.036;2024-02-26T01:17:14;5.70;1.00
18624;DHT22;9441;51.420;7.036;2024-02-26T01:18:15;5.70;1.00
18624;DHT22;9441;51.420;7.036;2024-02-26T01:19:16;5.70;1.00
18624;DHT22;9441;51.420;7.036;2024-02-26T01:20:18;5.70;1.00
18624;DHT22;9441;51.420;7.036;2024-02-26T01:21:19;5.70;1.00
18624;DHT22;9441;51.420;7.036;2024-02-26T01:22:21;5.70;1.00
18624;DHT22;9441;51.420;7.036;2024-02-26T01:23:24;5.70;1.00
18624;DHT22;9441;51.420;7.036;2024-02-26T01:24:26;5.60;1.00
18624;DHT22;9441;51.420;7.036;2024-02-26T01:25:27;5.70;1.00
18624;DHT22;9441;51.420;7.036;2024-02-26T01:26:29;5.60;1.00
18624;DHT22;9441;51.420;7.036;2024-02-26T01:27:31;5.70;1.00
18624;DHT22;9441;51.420;7.036;2024-02-26T01:28:33;5.70;1.00
18624;DHT22;9441;51.420;7.036;2024-02-26T01:29:34;5.60;1.00
18624;DHT22;9441;51.420;7.036;2024-02-26T01:30:36;5.60;1.00
18624;DHT22;9441;51.420;7.036;2024-02-26T01:31:37;5.60;1.00
18624;DHT22;9441;51.420;7.036;2024-02-26T01:32:39;5.60;1.00
18624;DHT22;9441;51.420;7.036;2024-02-26T01:33:41;5.70;1.00
18624;DHT22;9441;51.420;7.036;2024-02-26T01:34:43;5.70;1.00
18624;DHT22;9441;51.420;7.036;2024-02-26T01:35:44;5.60;1.00
18624;DHT22;9441;51.420;7.036;2024-02-26T01:36:47;5.60;1.00
18624;DHT22;9441;51.420;7.036;2024-02-26T01:37:48;5.60;1.00
18624;DHT22;9441;51.420;7.036;2024-02-26T01:38:51;5.60;1.00
18624;DHT22;9441;51.420;7.036;2024-02-26T01:39:53;5.50;1.00
18624;DHT22;9441;51.420;7.036;2024-02-26T01:40:54;5.50;1.00
18624;DHT22;9441;51.420;7.036;2024-02-26T01:41:56;5.60;1.00
18624;DHT22;9441;51.420;7.036;2024-02-26T01:42:57;5.60;1.00
18624;DHT22;9441;51.420;7.036;2024-02-26T01:43:59;5.60;1.00
18624;DHT22;9441;51.420;7.036;2024-02-26T01:45:00;5.60;1.00
18624;DHT22;9441;51.420;7.036;2024-02-26T01:46:03;5.60;1.00
18624;DHT22;9441;51.420;7.036;2024-02-26T01:47:05;5.60;1.00
18624;DHT22;9441;51.420;7.036;2024-02-26T01:48:09;5.60;1.00
18624;DHT22;9441;51.420;7.036;2024-02-26T01:49:12;5.60;1.00
18624;DHT22;9441;51.420;7.036;2024-02-26T01:50:14;5.60;1.00
18624;DHT22;9441;51.420;7.036;2024-02-26T01:51:16;5.60;1.00
18624;DHT22;9441;51.420;7.036;2024-02-26T01:52:19;5.50;1.00
18624;DHT22;9441;51.420;7.036;2024-02-26T01:53:21;5.60;1.00
18624;DHT22;9441;51.420;7.036;2024-02-26T01:54:25;5.60;1.00
18624;DHT22;9441;51.420;7.036;2024-02-26T01:55:26;5.60;1.00
18624;DHT22;9441;51.420;7.036;2024-02-26T01:56:29;5.60;1.00
18624;DHT22;9441;51.420;7.036;2024-02-26T01:57:32;5.60;1.00
18624;DHT22;9441;51.420;7.036;2024-02-26T01:58:35;5.70;1.00
18624;DHT22;9441;51.420;7.036;2024-02-26T01:59:37;5.70;1.00
18624;DHT22;9441;51.420;7.036;2024-02-26T02:00:39;5.60;1.00
18624;DHT22;9441;51.420;7.036;2024-02-26T02:01:44;5.70;1.00
18624;DHT22;9441;51.420;7.036;2024-02-26T02:02:46;5.70;1.00
18624;DHT22;9441;51.420;7.036;2024-02-26T02:03:49;5.70;1.00
18624;DHT22;9441;51.420;7.036;2024-02-26T02:04:51;5.60;1.00
18624;DHT22;9441;51.420;7.036;2024-02-26T02:05:53;5.70;1.00
18624;DHT22;9441;51.420;7.036;2024-02-26T02:06:55;5.70;1.00
18624;DHT22;9441;51.420;7.036;2024-02-26T02:07:58;5.70;1.00
18624;DHT22;9441;51.420;7.036;2024-02-26T02:09:01;5.70;1.00
18624;DHT22;9441;51.420;7.036;2024-02-26T02:10:08;5.70;1.00
18624;DHT22;9441;51.420;7.036;2024-02-26T02:11:11;5.60;1.00
18624;DHT22;9441;51.420;7.036;2024-02-26T02:12:12;5.60;1.00
18624;DHT22;9441;51.420;7.036;2024-02-26T02:13:14;5.70;1.00
18624;DHT22;9441;51.420;7.036;2024-02-26T02:14:15;5.60;1.00
18624;DHT22;9441;51.420;7.036;2024-02-26T02:15:17;5.70;1.00
18624;DHT22;9441;51.420;7.036;2024-02-26T02:16:18;5.60;1.00
18624;DHT22;9441;51.420;7.036;2024-02-26T02:17:19;5.60;1.00
18624;DHT22;9441;51.420;7.036;2024-02-26T02:18:22;5.60;1.00
18624;DHT22;9441;51.420;7.036;2024-02-26T02:19:23;5.60;1.00
18624;DHT22;9441;51.420;7.036;2024-02-26T02:20:31;5.60;1.00
18624;DHT22;9441;51.420;7.036;2024-02-26T02:21:33;5.60;1.00
18624;DHT22;9441;51.420;7.036;2024-02-26T02:22:35;5.60;1.00
18624;DHT22;9441;51.420;7.036;2024-02-26T02:23:36;5.60;1.00
18624;DHT22;9441;51.420;7.036;2024-02-26T02:24:38;5.60;1.00
18624;DHT22;9441;51.420;7.036;2024-02-26T02:25:39;5.60;1.00
18624;DHT22;9441;51.420;7.036;2024-02-26T02:26:41;5.50;1.00
18624;DHT22;9441;51.420;7.036;2024-02-26T02:27:43;5.60;1.00
18624;DHT22;9441;51.420;7.036;2024-02-26T02:28:46;5.60;1.00
18624;DHT22;9441;51.420;7.036;2024-02-26T02:29:48;5.60;1.00
18624;DHT22;9441;51.420;7.036;2024-02-26T02:30:50;5.60;1.00
18624;DHT22;9441;51.420;7.036;2024-02-26T02:31:51;5.60;1.00
18624;DHT22;9441;51.420;7.036;2024-02-26T02:32:53;5.60;1.00
18624;DHT22;9441;51.420;7.036;2024-02-26T02:33:55;5.60;1.00
18624;DHT22;9441;51.420;7.036;2024-02-26T02:34:58;5.60;1.00
18624;DHT22;9441;51.420;7.036;2024-02-26T02:36:00;5.60;1.00
18624;DHT22;9441;51.420;7.036;2024-02-26T02:37:02;5.60;1.00
18624;DHT22;9441;51.420;7.036;2024-02-26T02:38:04;5.60;99.90
18624;DHT22;9441;51.420;7.036;2024-02-26T02:39:06;5.60;99.90
18624;DHT22;9441;51.420;7.036;2024-02-26T02:40:09;5.60;99.90
18624;DHT22;9441;51.420;7.036;2024-02-26T02:41:11;5.70;99.90
18624;DHT22;9441;51.420;7.036;2024-02-26T02:42:12;5.70;99.90
18624;DHT22;9441;51.420;7.036;2024-02-26T02:43:13;5.70;99.90
18624;DHT22;9441;51.420;7.036;2024-02-26T02:44:15;5.60;99.90
18624;DHT22;9441;51.420;7.036;2024-02-26T02:45:16;5.60;99.90
18624;DHT22;9441;51.420;7.036;2024-02-26T02:46:19;5.60;99.90
18624;DHT22;9441;51.420;7.036;2024-02-26T02:47:20;5.70;99.90
18624;DHT22;9441;51.420;7.036;2024-02-26T02:48:22;5.70;99.90
18624;DHT22;9441;51.420;7.036;2024-02-26T02:49:23;5.70;99.90
18624;DHT22;9441;51.420;7.036;2024-02-26T02:50:25;5.70;99.90
18624;DHT22;9441;51.420;7.036;2024-02-26T02:51:27;5.70;99.90
18624;DHT22;9441;51.420;7.036;2024-02-26T02:52:30;5.70;99.90
18624;DHT22;9441;51.420;7.036;2024-02-26T02:53:31;5.70;99.90
18624;DHT22;9441;51.420;7.036;2024-02-26T02:54:33;5.70;99.90
18624;DHT22;9441;51.420;7.036;2024-02-26T02:55:34;5.70;99.90
18624;DHT22;9441;51.420;7.036;2024-02-26T02:56:36;5.70;99.90
18624;DHT22;9441;51.420;7.036;2024-02-26T02:57:37;5.70;99.90
18624;DHT22;9441;51.420;7.036;2024-02-26T02:58:42;5.60;99.90
18624;DHT22;9441;51.420;7.036;2024-02-26T02:59:43;5.70;99.90
18624;DHT22;9441;51.420;7.036;2024-02-26T03:00:45;5.70;99.90
18624;DHT22;9441;51.420;7.036;2024-02-26T03:01:46;5.70;99.90
18624;DHT22;9441;51.420;7.036;2024-02-26T03:02:48;5.70;99.90
18624;DHT22;9441;51.420;7.036;2024-02-26T03:03:50;5.70;99.90
18624;DHT22;9441;51.420;7.036;2024-02-26T03:04:52;5.60;99.90
18624;DHT22;9441;51.420;7.036;2024-02-26T03:05:53;5.60;99.90
18624;DHT22;9441;51.420;7.036;2024-02-26T03:06:56;5.60;99.90
18624;DHT22;9441;51.420;7.036;2024-02-26T03:07:58;5.60;99.90
18624;DHT22;9441;51.420;7.036;2024-02-26T03:09:00;5.70;99.90
18624;DHT22;9441;51.420;7.036;2024-02-26T03:10:01;5.60;99.90
18624;DHT22;9441;51.420;7.036;2024-02-26T03:11:04;5.60;99.90
18624;DHT22;9441;51.420;7.036;2024-02-26T03:12:05;5.70;99.90
18624;DHT22;9441;51.420;7.036;2024-02-26T03:13:07;5.60;99.90
18624;DHT22;9441;51.420;7.036;2024-02-26T03:14:11;5.60;99.90
18624;DHT22;9441;51.420;7.036;2024-02-26T03:15:13;5.60;99.90
18624;DHT22;9441;51.420;7.036;2024-02-26T03:16:14;5.60;99.90
18624;DHT22;9441;51.420;7.036;2024-02-26T03:17:16;5.60;99.90
18624;DHT22;9441;51.420;7.036;2024-02-26T03:18:17;5.60;99.90
18624;DHT22;9441;51.420;7.036;2024-02-26T03:19:19;5.60;99.90
18624;DHT22;9441;51.420;7.036;2024-02-26T03:20:20;5.60;99.90
18624;DHT22;9441;51.420;7.036;2024-02-26T03:21:24;5.70;99.90
18624;DHT22;9441;51.420;7.036;2024-02-26T03:22:27;5.70;99.90
18624;DHT22;9441;51.420;7.036;2024-02-26T03:23:28;5.70;99.90
18624;DHT22;9441;51.420;7.036;2024-02-26T03:24:31;5.80;99.90
18624;DHT22;9441;51.420;7.036;2024-02-26T03:25:32;5.70;99.90
18624;DHT22;9441;51.420;7.036;2024-02-26T03:26:34;5.70;99.90
18624;DHT22;9441;51.420;7.036;2024-02-26T03:27:35;5.70;99.90
18624;DHT22;9441;51.420;7.036;2024-02-26T03:28:37;5.60;99.90
18624;DHT22;9441;51.420;7.036;2024-02-26T03:29:39;5.70;99.90
18624;DHT22;9441;51.420;7.036;2024-02-26T03:30:41;5.70;99.90
18624;DHT22;9441;51.420;7.036;2024-02-26T03:31:41;5.60;99.90
18624;DHT22;9441;51.420;7.036;2024-02-26T03:32:43;5.60;99.90
18624;DHT22;9441;51.420;7.036;2024-02-26T03:33:44;5.60;99.90
18624;DHT22;9441;51.420;7.036;2024-02-26T03:34:46;5.60;99.90
18624;DHT22;9441;51.420;7.036;2024-02-26T03:35:47;5.60;99.90
18624;DHT22;9441;51.420;7.036;2024-02-26T03:36:48;5.60;99.90
18624;DHT22;9441;51.420;7.036;2024-02-26T03:37:52;5.60;1.00
18624;DHT22;9441;51.420;7.036;2024-02-26T03:38:53;5.60;1.00
18624;DHT22;9441;51.420;7.036;2024-02-26T03:39:55;5.60;1.00
18624;DHT22;9441;51.420;7.036;2024-02-26T03:40:57;5.60;1.00
18624;DHT22;9441;51.420;7.036;2024-02-26T03:41:59;5.50;1.00
18624;DHT22;9441;51.420;7.036;2024-02-26T03:43:01;5.50;1.00
18624;DHT22;9441;51.420;7.036;2024-02-26T03:44:03;5.50;1.00
18624;DHT22;9441;51.420;7.036;2024-02-26T03:45:06;5.60;1.00
18624;DHT22;9441;51.420;7.036;2024-02-26T03:46:07;5.60;1.00
18624;DHT22;9441;51.420;7.036;2024-02-26T03:47:10;5.60;1.00
18624;DHT22;9441;51.420;7.036;2024-02-26T03:48:11;5.50;1.00
18624;DHT22;9441;51.420;7.036;2024-02-26T03:49:13;5.50;1.00
18624;DHT22;9441;51.420;7.036;2024-02-26T03:50:14;5.60;1.00
18624;DHT22;9441;51.420;7.036;2024-02-26T03:51:17;5.60;1.00
18624;DHT22;9441;51.420;7.036;2024-02-26T03:52:18;5.50;1.00
18624;DHT22;9441;51.420;7.036;2024-02-26T03:53:21;5.60;1.00
18624;DHT22;9441;51.420;7.036;2024-02-26T03:54:22;5.60;1.00
18624;DHT22;9441;51.420;7.036;2024-02-26T03:55:24;5.50;1.00
18624;DHT22;9441;51.420;7.036;2024-02-26T03:56:26;5.60;1.00
18624;DHT22;9441;51.420;7.036;2024-02-26T03:57:28;5.50;1.00
18624;DHT22;9441;51.420;7.036;2024-02-26T03:58:29;5.50;1.00
18624;DHT22;9441;51.420;7.036;2024-02-26T03:59:30;5.50;1.00
18624;DHT22;9441;51.420;7.036;2024-02-26T04:00:32;5.50;1.00
18624;DHT22;9441;51.420;7.036;2024-02-26T04:01:33;5.50;1.00
18624;DHT22;9441;51.420;7.036;2024-02-26T04:02:35;5.60;1.00
18624;DHT22;9441;51.420;7.036;2024-02-26T04:03:36;5.50;1.00
18624;DHT22;9441;51.420;7.036;2024-02-26T04:04:38;5.50;1.00
18624;DHT22;9441;51.420;7.036;2024-02-26T04:05:40;5.40;1.00
18624;DHT22;9441;51.420;7.036;2024-02-26T04:06:44;5.40;1.00
18624;DHT22;9441;51.420;7.036;2024-02-26T04:07:45;5.50;1.00
18624;DHT22;9441;51.420;7.036;2024-02-26T04:08:49;5.50;1.00
18624;DHT22;9441;51.420;7.036;2024-02-26T04:09:50;5.50;1.00
18624;DHT22;9441;51.420;7.036;2024-02-26T04:10:52;5.50;1.00
18624;DHT22;9441;51.420;7.036;2024-02-26T04:11:53;5.50;1.00
18624;DHT22;9441;51.420;7.036;2024-02-26T04:12:55;5.40;1.00
18624;DHT22;9441;51.420;7.036;2024-02-26T04:13:56;5.40;1.00
18624;DHT22;9441;51.420;7.036;2024-02-26T04:14:58;5.40;1.00
18624;DHT22;9441;51.420;7.036;2024-02-26T04:15:59;5.40;1.00
18624;DHT22;9441;51.420;7.036;2024-02-26T04:17:02;5.50;1.00
18624;DHT22;9441;51.420;7.036;2024-02-26T04:18:03;5.40;1.00
18624;DHT22;9441;51.420;7.036;2024-02-26T04:19:05;5.40;1.00
18624;DHT22;9441;51.420;7.036;2024-02-26T04:20:12;5.40;1.00
18624;DHT22;9441;51.420;7.036;2024-02-26T04:21:14;5.40;1.00
18624;DHT22;9441;51.420;7.036;2024-02-26T04:22:15;5.30;1.00
18624;DHT22;9441;51.420;7.036;2024-02-26T04:23:18;5.40;1.00
18624;DHT22;9441;51.420;7.036;2024-02-26T04:24:20;5.40;1.00
18624;DHT22;9441;51.420;7.036;2024-02-26T04:25:22;5.50;1.00
18624;DHT22;9441;51.420;7.036;2024-02-26T04:26:23;5.40;1.00
18624;DHT22;9441;51.420;7.036;2024-02-26T04:27:25;5.50;1.00
18624;DHT22;9441;51.420;7.036;2024-02-26T04:28:26;5.50;46.40
18624;DHT22;9441;51.420;7.036;2024-02-26T04:29:29;5.50;38.10
18624;DHT22;9441;51.420;7.036;2024-02-26T04:30:30;5.40;54.10
18624;DHT22;9441;51.420;7.036;2024-02-26T04:31:31;5.40;53.60
18624;DHT22;9441;51.420;7.036;2024-02-26T04:32:33;5.40;99.90
18624;DHT22;9441;51.420;7.036;2024-02-26T04:33:35;5.50;99.90
18624;DHT22;9441;51.420;7.036;2024-02-26T04:34:37;5.50;99.90
18624;DHT22;9441;51.420;7.036;2024-02-26T04:35:38;5.60;99.90
18624;DHT22;9441;51.420;7.036;2024-02-26T04:36:40;5.50;99.90
18624;DHT22;9441;51.420;7.036;2024-02-26T04:37:43;5.50;99.90
18624;DHT22;9441;51.420;7.036;2024-02-26T04:38:44;5.50;99.90
18624;DHT22;9441;51.420;7.036;2024-02-26T04:39:47;5.60;1.00
18624;DHT22;9441;51.420;7.036;2024-02-26T04:40:49;5.60;1.00
18624;DHT22;9441;51.420;7.036;2024-02-26T04:41:51;5.60;1.00
18624;DHT22;9441;51.420;7.036;2024-02-26T04:42:52;5.60;1.00
18624;DHT22;9441;51.420;7.036;2024-02-26T04:43:54;5.50;1.00
18624;DHT22;9441;51.420;7.036;2024-02-26T04:44:55;5.50;1.00
18624;DHT22;9441;51.420;7.036;2024-02-26T04:45:56;5.50;1.00
18624;DHT22;9441;51.420;7.036;2024-02-26T04:46:58;5.50;1.00
18624;DHT22;9441;51.420;7.036;2024-02-26T04:47:59;5.60;1.00
18624;DHT22;9441;51.420;7.036;2024-02-26T04:49:01;5.60;1.00
18624;DHT22;9441;51.420;7.036;2024-02-26T04:50:03;5.60;1.00
18624;DHT22;9441;51.420;7.036;2024-02-26T04:51:05;5.60;1.00
18624;DHT22;9441;51.420;7.036;2024-02-26T04:52:06;5.50;1.00
18624;DHT22;9441;51.420;7.036;2024-02-26T04:53:07;5.50;1.00
18624;DHT22;9441;51.420;7.036;2024-02-26T04:54:10;5.50;1.00
18624;DHT22;9441;51.420;7.036;2024-02-26T04:55:12;5.50;1.00
18624;DHT22;9441;51.420;7.036;2024-02-26T04:56:14;5.40;1.00
18624;DHT22;9441;51.420;7.036;2024-02-26T04:57:15;5.40;1.00
18624;DHT22;9441;51.420;7.036;2024-02-26T04:58:19;5.50;99.90
18624;DHT22;9441;51.420;7.036;2024-02-26T04:59:21;5.40;18.30
18624;DHT22;9441;51.420;7.036;2024-02-26T05:00:22;5.30;56.50
18624;DHT22;9441;51.420;7.036;2024-02-26T05:01:24;5.40;99.90
18624;DHT22;9441;51.420;7.036;2024-02-26T05:02:25;5.40;1.00
18624;DHT22;9441;51.420;7.036;2024-02-26T05:03:28;5.50;1.00
18624;DHT22;9441;51.420;7.036;2024-02-26T05:04:29;5.50;1.00
18624;DHT22;9441;51.420;7.036;2024-02-26T05:05:31;5.50;1.00
18624;DHT22;9441;51.420;7.036;2024-02-26T05:06:32;5.40;1.00
18624;DHT22;9441;51.420;7.036;2024-02-26T05:07:34;5.50;1.00
18624;DHT22;9441;51.420;7.036;2024-02-26T05:08:40;5.40;1.00
18624;DHT22;9441;51.420;7.036;2024-02-26T05:09:42;5.40;99.90
18624;DHT22;9441;51.420;7.036;2024-02-26T05:10:46;5.50;99.90
18624;DHT22;9441;51.420;7.036;2024-02-26T05:11:48;5.40;99.90
18624;DHT22;9441;51.420;7.036;2024-02-26T05:12:49;5.40;1.00
18624;DHT22;9441;51.420;7.036;2024-02-26T05:13:51;5.40;1.00
18624;DHT22;9441;51.420;7.036;2024-02-26T05:14:52;5.50;1.00
18624;DHT22;9441;51.420;7.036;2024-02-26T05:15:53;5.40;81.10
18624;DHT22;9441;51.420;7.036;2024-02-26T05:16:55;5.50;99.90
18624;DHT22;9441;51.420;7.036;2024-02-26T05:17:56;5.50;1.00
18624;DHT22;9441;51.420;7.036;2024-02-26T05:18:58;5.50;1.00
18624;DHT22;9441;51.420;7.036;2024-02-26T05:20:00;5.40;1.00
18624;DHT22;9441;51.420;7.036;2024-02-26T05:21:02;5.40;1.00
18624;DHT22;9441;51.420;7.036;2024-02-26T05:22:04;5.40;1.00
18624;DHT22;9441;51.420;7.036;2024-02-26T05:23:05;5.40;47.40
18624;DHT22;9441;51.420;7.036;2024-02-26T05:24:07;5.40;99.90
18624;DHT22;9441;51.420;7.036;2024-02-26T05:25:08;5.40;99.90
18624;DHT22;9441;51.420;7.036;2024-02-26T05:26:12;5.40;1.00
18624;DHT22;9441;51.420;7.036;2024-02-26T05:27:13;5.50;1.00
18624;DHT22;9441;51.420;7.036;2024-02-26T05:28:15;5.40;1.00
18624;DHT22;9441;51.420;7.036;2024-02-26T05:29:16;5.40;99.90
18624;DHT22;9441;51.420;7.036;2024-02-26T05:30:18;5.40;99.90
18624;DHT22;9441;51.420;7.036;2024-02-26T05:31:19;5.40;1.00
18624;DHT22;9441;51.420;7.036;2024-02-26T05:32:21;5.40;1.00
18624;DHT22;9441;51.420;7.036;2024-02-26T05:33:22;5.30;1.00
18624;DHT22;9441;51.420;7.036;2024-02-26T05:34:24;5.50;1.00
18624;DHT22;9441;51.420;7.036;2024-02-26T05:35:25;5.50;99.90
18624;DHT22;9441;51.420;7.036;2024-02-26T05:36:27;5.50;99.90
18624;DHT22;9441;51.420;7.036;2024-02-26T05:37:33;5.50;1.00
18624;DHT22;9441;51.420;7.036;2024-02-26T05:38:35;5.50;1.00
18624;DHT22;9441;51.420;7.036;2024-02-26T05:39:36;5.50;1.00
18624;DHT22;9441;51.420;7.036;2024-02-26T05:40:37;5.50;1.00
18624;DHT22;9441;51.420;7.036;2024-02-26T05:41:41;5.40;1.00
18624;DHT22;9441;51.420;7.036;2024-02-26T05:42:43;5.30;1.00
18624;DHT22;9441;51.420;7.036;2024-02-26T05:43:46;5.40;1.00
18624;DHT22;9441;51.420;7.036;2024-02-26T05:44:47;5.40;99.90
18624;DHT22;9441;51.420;7.036;2024-02-26T05:45:49;5.40;1.00
18624;DHT22;9441;51.420;7.036;2024-02-26T05:46:50;5.40;1.00
18624;DHT22;9441;51.420;7.036;2024-02-26T05:47:51;5.40;1.00
18624;DHT22;9441;51.420;7.036;2024-02-26T05:48:53;5.40;1.00
18624;DHT22;9441;51.420;7.036;2024-02-26T05:49:54;5.50;1.00
18624;DHT22;9441;51.420;7.036;2024-02-26T05:50:59;5.50;99.90
18624;DHT22;9441;51.420;7.036;2024-02-26T05:52:00;5.40;99.90
18624;DHT22;9441;51.420;7.036;2024-02-26T05:53:02;5.40;99.90
18624;DHT22;9441;51.420;7.036;2024-02-26T05:54:04;5.50;99.90
18624;DHT22;9441;51.420;7.036;2024-02-26T05:55:06;5.50;1.00
18624;DHT22;9441;51.420;7.036;2024-02-26T05:56:08;5.50;1.00
18624;DHT22;9441;51.420;7.036;2024-02-26T05:57:11;5.40;1.00
18624;DHT22;9441;51.420;7.036;2024-02-26T05:58:12;5.40;1.00
18624;DHT22;9441;51.420;7.036;2024-02-26T05:59:14;5.50;1.00
18624;DHT22;9441;51.420;7.036;2024-02-26T06:00:17;5.70;99.90
18624;DHT22;9441;51.420;7.036;2024-02-26T06:01:19;5.70;99.90
18624;DHT22;9441;51.420;7.036;2024-02-26T06:02:20;5.90;99.90
18624;DHT22;9441;51.420;7.036;2024-02-26T06:03:22;5.70;99.90
18624;DHT22;9441;51.420;7.036;2024-02-26T06:04:23;5.80;99.90
18624;DHT22;9441;51.420;7.036;2024-02-26T06:05:25;5.70;99.90
18624;DHT22;9441;51.420;7.036;2024-02-26T06:06:27;5.70;99.90
18624;DHT22;9441;51.420;7.036;2024-02-26T06:07:29;5.80;99.90
18624;DHT22;9441;51.420;7.036;2024-02-26T06:08:30;5.80;99.90
18624;DHT22;9441;51.420;7.036;2024-02-26T06:09:32;5.60;99.90
18624;DHT22;9441;51.420;7.036;2024-02-26T06:10:33;5.70;99.90
18624;DHT22;9441;51.420;7.036;2024-02-26T06:11:35;5.70;99.90
18624;DHT22;9441;51.420;7.036;2024-02-26T06:12:38;5.70;99.90
18624;DHT22;9441;51.420;7.036;2024-02-26T06:13:40;5.80;99.90
18624;DHT22;9441;51.420;7.036;2024-02-26T06:14:42;5.70;99.90
18624;DHT22;9441;51.420;7.036;2024-02-26T06:15:44;5.70;99.90
18624;DHT22;9441;51.420;7.036;2024-02-26T06:16:45;5.60;99.90
18624;DHT22;9441;51.420;7.036;2024-02-26T06:17:47;5.70;99.90
18624;DHT22;9441;51.420;7.036;2024-02-26T06:18:48;5.60;99.90
18624;DHT22;9441;51.420;7.036;2024-02-26T06:19:50;5.80;99.90
18624;DHT22;9441;51.420;7.036;2024-02-26T06:20:51;5.70;99.90
18624;DHT22;9441;51.420;7.036;2024-02-26T06:21:53;5.90;99.90
18624;DHT22;9441;51.420;7.036;2024-02-26T06:22:54;6.10;99.90
18624;DHT22;9441;51.420;7.036;2024-02-26T06:23:56;5.90;99.90
18624;DHT22;9441;51.420;7.036;2024-02-26T06:24:57;5.80;99.90
18624;DHT22;9441;51.420;7.036;2024-02-26T06:25:59;5.90;99.90
18624;DHT22;9441;51.420;7.036;2024-02-26T06:27:00;5.80;99.90
18624;DHT22;9441;51.420;7.036;2024-02-26T06:28:05;5.90;99.90
18624;DHT22;9441;51.420;7.036;2024-02-26T06:29:06;5.90;99.90
18624;DHT22;9441;51.420;7.036;2024-02-26T06:30:08;5.80;99.90
18624;DHT22;9441;51.420;7.036;2024-02-26T06:31:11;5.80;99.90
18624;DHT22;9441;51.420;7.036;2024-02-26T06:32:13;5.80;99.90
18624;DHT22;9441;51.420;7.036;2024-02-26T06:33:14;5.80;99.90
18624;DHT22;9441;51.420;7.036;2024-02-26T06:34:16;5.70;99.90
18624;DHT22;9441;51.420;7.036;2024-02-26T06:35:18;5.70;99.90
18624;DHT22;9441;51.420;7.036;2024-02-26T06:36:20;5.70;99.90
18624;DHT22;9441;51.420;7.036;2024-02-26T06:37:21;5.70;99.90
18624;DHT22;9441;51.420;7.036;2024-02-26T06:38:23;5.60;99.90
18624;DHT22;9441;51.420;7.036;2024-02-26T06:39:24;5.70;99.90
18624;DHT22;9441;51.420;7.036;2024-02-26T06:40:27;5.70;99.90
18624;DHT22;9441;51.420;7.036;2024-02-26T06:41:28;5.60;99.90
18624;DHT22;9441;51.420;7.036;2024-02-26T06:42:30;5.50;99.90
18624;DHT22;9441;51.420;7.036;2024-02-26T06:43:33;5.60;99.90
18624;DHT22;9441;51.420;7.036;2024-02-26T06:44:35;5.60;99.90
18624;DHT22;9441;51.420;7.036;2024-02-26T06:45:36;5.60;99.90
18624;DHT22;9441;51.420;7.036;2024-02-26T06:46:38;5.60;99.90
18624;DHT22;9441;51.420;7.036;2024-02-26T06:47:40;5.50;99.90